Time;durP1;ratioP1;P1;durP2;ratioP2;P2;SDS_P1;SDS_P2;PMS_P1;PMS_P2;Temp;Humidity;BMP_temperature;BMP_pressure;BME280_temperature;BME280_humidity;BME280_pressure;Samples;Min_cycle;Max_cycle;Signal;HPM_P1;HPM_P2
2023/01/27 00:00:05;;;;;;;20.02;6.97;;;;;;;;;;5020423;28;20033;-82
2023/01/27 00:02:31;;;;;;;16.05;7.78;;;;;;;;;;5018910;28;20420;-81
2023/01/27 00:04:57;;;;;;;17.33;7.47;;;;;;;;;;5018674;28;20030;-82
2023/01/27 00:07:22;;;;;;;16.45;7.28;;;;;;;;;;5019851;28;20030;-81
2023/01/27 00:09:47;;;;;;;18.00;7.20;;;;;;;;;;5020228;28;20026;-82
2023/01/27 00:15:07;;;;;;;18.02;7.25;;;;;;;;;;5019490;28;20057;-81
2023/01/27 00:17:33;;;;;;;16.35;7.43;;;;;;;;;;5018459;28;20030;-81
2023/01/27 00:19:59;;;;;;;17.63;7.13;;;;;;;;;;5017327;28;20033;-80
2023/01/27 00:25:09;;;;;;;21.77;7.35;;;;;;;;;;5019536;28;20029;-81
2023/01/27 00:27:34;;;;;;;19.88;7.45;;;;;;;;;;5018315;28;20022;-79
2023/01/27 00:29:59;;;;;;;15.25;7.30;;;;;;;;;;5018822;28;20026;-80
2023/01/27 00:35:09;;;;;;;18.35;7.38;;;;;;;;;;5019179;28;20061;-82
2023/01/27 00:37:37;;;;;;;17.90;7.55;;;;;;;;;;5017962;28;20172;-80
2023/01/27 00:40:03;;;;;;;15.82;7.05;;;;;;;;;;5018009;28;20026;-82
2023/01/27 00:42:28;;;;;;;17.65;6.63;;;;;;;;;;5017959;28;20491;-81
2023/01/27 00:47:37;;;;;;;17.55;6.43;;;;;;;;;;5018804;28;20080;-81
2023/01/27 00:50:03;;;;;;;16.75;6.68;;;;;;;;;;5018740;28;20408;-82
2023/01/27 00:52:28;;;;;;;17.88;7.18;;;;;;;;;;5016925;28;20070;-81
2023/01/27 00:54:53;;;;;;;18.23;7.15;;;;;;;;;;5016305;28;20443;-82
2023/01/27 00:57:18;;;;;;;15.13;6.85;;;;;;;;;;5019995;28;20029;-81
2023/01/27 00:59:46;;;;;;;17.00;6.28;;;;;;;;;;5019858;28;20028;-82
2023/01/27 01:02:11;;;;;;;14.65;6.78;;;;;;;;;;5021001;28;20025;-81
2023/01/27 01:04:36;;;;;;;14.52;5.93;;;;;;;;;;5021849;28;20030;-82
2023/01/27 01:07:02;;;;;;;15.70;6.15;;;;;;;;;;5020834;28;20037;-83
2023/01/27 01:09:27;;;;;;;15.45;6.72;;;;;;;;;;5022985;28;20044;-82
2023/01/27 01:11:53;;;;;;;16.45;7.40;;;;;;;;;;5021375;28;20037;-81
2023/01/27 01:14:18;;;;;;;18.38;7.65;;;;;;;;;;5023828;28;20494;-83
2023/01/27 01:16:43;;;;;;;13.32;6.25;;;;;;;;;;5022128;28;20431;-83
2023/01/27 01:19:08;;;;;;;16.55;7.40;;;;;;;;;;5022334;28;20025;-82
2023/01/27 01:21:34;;;;;;;17.50;7.15;;;;;;;;;;5021799;28;20034;-81
2023/01/27 01:23:59;;;;;;;16.33;7.50;;;;;;;;;;5023058;28;20478;-82
2023/01/27 01:26:26;;;;;;;16.25;7.70;;;;;;;;;;5032824;28;20024;-82
2023/01/27 01:28:52;;;;;;;18.05;6.93;;;;;;;;;;5040605;28;20094;-82
2023/01/27 01:31:18;;;;;;;17.98;8.10;;;;;;;;;;5040449;28;20018;-83
2023/01/27 01:33:44;;;;;;;15.77;7.35;;;;;;;;;;5040530;28;20041;-82
2023/01/27 01:36:12;;;;;;;15.27;7.25;;;;;;;;;;5041154;28;20092;-82
2023/01/27 01:38:37;;;;;;;14.88;6.50;;;;;;;;;;5040987;28;20030;-82
2023/01/27 01:41:07;;;;;;;15.50;6.38;;;;;;;;;;5039367;28;20060;-81
2023/01/27 01:43:33;;;;;;;16.38;7.68;;;;;;;;;;5040966;28;20018;-81
2023/01/27 01:46:00;;;;;;;18.52;7.32;;;;;;;;;;5041021;28;20085;-81
2023/01/27 01:48:47;;;;;;;16.25;7.25;;;;;;;;;;5040241;28;20152;-81
2023/01/27 01:51:29;;;;;;;17.33;6.72;;;;;;;;;;5040438;28;20014;-81
2023/01/27 01:54:17;;;;;;;16.85;6.55;;;;;;;;;;5039369;28;20030;-81
2023/01/27 01:56:56;;;;;;;13.18;6.53;;;;;;;;;;5040882;28;20014;-81
2023/01/27 01:59:31;;;;;;;15.23;6.85;;;;;;;;;;5040262;28;20053;-80
2023/01/27 02:02:02;;;;;;;13.88;6.80;;;;;;;;;;5040785;28;20029;-81
2023/01/27 02:04:35;;;;;;;12.80;6.18;;;;;;;;;;5040001;28;20094;-81
2023/01/27 02:07:06;;;;;;;13.98;6.78;;;;;;;;;;5026620;28;20029;-82
2023/01/27 02:09:31;;;;;;;12.93;6.38;;;;;;;;;;5018287;28;20037;-81
2023/01/27 02:12:00;;;;;;;15.95;6.15;;;;;;;;;;5017126;28;20026;-81
2023/01/27 02:14:25;;;;;;;13.35;6.78;;;;;;;;;;5017295;28;20033;-82
2023/01/27 02:16:50;;;;;;;13.05;6.43;;;;;;;;;;5018297;28;20036;-82
2023/01/27 02:19:31;;;;;;;15.18;6.90;;;;;;;;;;5022272;28;20033;-81
2023/01/27 02:21:56;;;;;;;13.30;6.22;;;;;;;;;;5019650;28;20042;-81
2023/01/27 02:24:30;;;;;;;14.70;6.82;;;;;;;;;;5020485;28;20148;-82
2023/01/27 02:26:55;;;;;;;15.90;7.20;;;;;;;;;;5019293;28;20037;-82
2023/01/27 02:29:21;;;;;;;16.95;7.40;;;;;;;;;;5017372;28;20030;-82
2023/01/27 02:31:46;;;;;;;15.50;6.95;;;;;;;;;;5016846;28;20052;-81
2023/01/27 02:34:17;;;;;;;14.93;6.53;;;;;;;;;;5018718;28;20045;-81
2023/01/27 02:36:49;;;;;;;13.93;6.18;;;;;;;;;;5018567;28;20026;-82
2023/01/27 02:39:17;;;;;;;14.70;7.05;;;;;;;;;;5019424;28;20017;-80
2023/01/27 02:41:55;;;;;;;17.33;7.25;;;;;;;;;;5017942;28;20026;-81
2023/01/27 02:44:20;;;;;;;18.35;7.47;;;;;;;;;;5019576;28;20030;-81
2023/01/27 02:46:46;;;;;;;14.57;6.13;;;;;;;;;;5019511;28;20029;-81
2023/01/27 02:49:11;;;;;;;16.75;6.78;;;;;;;;;;5018921;28;20481;-83
2023/01/27 02:51:38;;;;;;;19.00;7.57;;;;;;;;;;5019668;28;20481;-80
2023/01/27 02:54:03;;;;;;;18.67;7.97;;;;;;;;;;5018991;28;20042;-81
2023/01/27 02:56:28;;;;;;;17.08;6.75;;;;;;;;;;5019374;28;20022;-81
2023/01/27 02:58:55;;;;;;;13.77;6.22;;;;;;;;;;5018462;28;20052;-80
2023/01/27 03:01:20;;;;;;;17.00;6.70;;;;;;;;;;5017421;28;20080;-81
2023/01/27 03:03:48;;;;;;;17.13;7.35;;;;;;;;;;5019438;28;20033;-82
2023/01/27 03:06:13;;;;;;;21.67;8.15;;;;;;;;;;5019614;28;20083;-83
2023/01/27 03:08:39;;;;;;;18.52;8.13;;;;;;;;;;5018650;28;20499;-80
2023/01/27 03:11:05;;;;;;;17.00;7.53;;;;;;;;;;5019260;28;20114;-80
2023/01/27 03:13:31;;;;;;;16.80;6.93;;;;;;;;;;5019581;28;20035;-82
2023/01/27 03:18:48;;;;;;;13.35;5.93;;;;;;;;;;5019503;28;20097;-81
2023/01/27 03:21:15;;;;;;;18.30;7.07;;;;;;;;;;5018910;28;20025;-81
2023/01/27 03:23:41;;;;;;;16.52;7.00;;;;;;;;;;5016998;28;20108;-82
2023/01/27 03:26:08;;;;;;;13.43;5.65;;;;;;;;;;5018737;28;20021;-81
2023/01/27 03:28:34;;;;;;;14.70;6.72;;;;;;;;;;5017399;28;20021;-80
2023/01/27 03:31:05;;;;;;;17.05;6.85;;;;;;;;;;5019100;28;20440;-82
2023/01/27 03:33:31;;;;;;;17.67;6.93;;;;;;;;;;5017928;28;20030;-81
2023/01/27 03:46:55;;;;;;;19.33;6.85;;;;;;;;;;5020165;28;20032;-81
2023/01/27 03:49:20;;;;;;;13.48;5.50;;;;;;;;;;5019562;28;20416;-82
2023/01/27 03:51:45;;;;;;;18.98;6.82;;;;;;;;;;5018971;28;20026;-80
2023/01/27 03:54:11;;;;;;;19.42;6.95;;;;;;;;;;5019047;28;20033;-83
2023/01/27 03:56:36;;;;;;;19.20;7.47;;;;;;;;;;5019305;28;20030;-80
2023/01/27 03:59:01;;;;;;;20.05;6.78;;;;;;;;;;5019447;28;20102;-81
2023/01/27 04:01:26;;;;;;;19.17;7.35;;;;;;;;;;5019821;28;20057;-81
2023/01/27 04:06:50;;;;;;;17.67;6.68;;;;;;;;;;5019118;28;20044;-82
2023/01/27 04:09:23;;;;;;;11.73;4.97;;;;;;;;;;5018450;28;20056;-80
2023/01/27 04:11:55;;;;;;;19.52;7.05;;;;;;;;;;5017912;28;20041;-82
2023/01/27 04:14:26;;;;;;;16.08;6.28;;;;;;;;;;5017014;28;20389;-83
2023/01/27 04:16:53;;;;;;;17.67;6.18;;;;;;;;;;5018127;28;20057;-82
2023/01/27 04:19:19;;;;;;;16.50;5.97;;;;;;;;;;5017602;28;20030;-82
2023/01/27 04:21:44;;;;;;;13.43;5.78;;;;;;;;;;5019412;28;20440;-82
2023/01/27 04:24:23;;;;;;;16.85;6.32;;;;;;;;;;5018617;28;20026;-82
2023/01/27 04:26:50;;;;;;;13.25;5.60;;;;;;;;;;5017956;28;20373;-82
2023/01/27 04:29:16;;;;;;;13.05;4.82;;;;;;;;;;5021145;28;20018;-83
2023/01/27 04:31:41;;;;;;;13.90;5.47;;;;;;;;;;5020518;28;20159;-83
2023/01/27 04:34:07;;;;;;;15.52;6.38;;;;;;;;;;5019889;28;20065;-83
2023/01/27 04:36:33;;;;;;;19.52;6.15;;;;;;;;;;5020419;28;20026;-81
2023/01/27 04:38:58;;;;;;;12.98;5.40;;;;;;;;;;5023371;28;20101;-81
2023/01/27 04:41:23;;;;;;;15.32;5.60;;;;;;;;;;5023053;28;20502;-81
2023/01/27 04:43:49;;;;;;;18.92;6.50;;;;;;;;;;5023394;28;20059;-83
2023/01/27 04:46:14;;;;;;;16.95;6.00;;;;;;;;;;5023200;28;20018;-82
2023/01/27 04:48:39;;;;;;;11.85;5.63;;;;;;;;;;5023267;28;20053;-82
2023/01/27 04:51:04;;;;;;;15.60;6.07;;;;;;;;;;5022432;28;20032;-82
2023/01/27 04:53:30;;;;;;;16.20;5.80;;;;;;;;;;5020866;28;20034;-80
2023/01/27 04:56:01;;;;;;;15.07;5.78;;;;;;;;;;5023473;28;20057;-83
2023/01/27 04:58:26;;;;;;;14.98;5.35;;;;;;;;;;5023188;28;20049;-82
2023/01/27 05:00:51;;;;;;;15.65;6.30;;;;;;;;;;5021319;28;20026;-82
2023/01/27 05:03:16;;;;;;;11.77;4.80;;;;;;;;;;5022932;28;20037;-82
2023/01/27 05:05:42;;;;;;;15.15;6.22;;;;;;;;;;5022005;28;20133;-82
2023/01/27 05:08:09;;;;;;;16.17;6.15;;;;;;;;;;5023225;28;20025;-82
2023/01/27 05:10:35;;;;;;;15.38;6.50;;;;;;;;;;5023258;28;20396;-81
2023/01/27 05:13:01;;;;;;;17.60;6.30;;;;;;;;;;5023065;28;20026;-82
2023/01/27 05:15:28;;;;;;;17.25;6.25;;;;;;;;;;5022001;28;20036;-80
2023/01/27 05:17:53;;;;;;;20.25;7.07;;;;;;;;;;5021008;28;20392;-79
2023/01/27 05:20:18;;;;;;;13.73;6.25;;;;;;;;;;5021266;28;20113;-82
2023/01/27 05:22:44;;;;;;;18.85;7.22;;;;;;;;;;5023672;28;20030;-81
2023/01/27 05:25:09;;;;;;;17.75;7.32;;;;;;;;;;5023111;28;20087;-81
2023/01/27 05:27:34;;;;;;;15.50;6.15;;;;;;;;;;5022196;28;20033;-80
2023/01/27 05:30:00;;;;;;;17.30;6.35;;;;;;;;;;5022587;28;20488;-81
2023/01/27 05:32:25;;;;;;;19.20;6.60;;;;;;;;;;5021947;28;20045;-82
2023/01/27 05:34:50;;;;;;;18.27;6.43;;;;;;;;;;5022303;28;20029;-82
2023/01/27 05:37:16;;;;;;;17.63;5.95;;;;;;;;;;5022032;28;20034;-80
2023/01/27 05:39:41;;;;;;;16.42;5.85;;;;;;;;;;5021761;28;20065;-81
2023/01/27 05:42:06;;;;;;;16.33;5.63;;;;;;;;;;5021946;28;20030;-79
2023/01/27 05:44:32;;;;;;;17.38;6.28;;;;;;;;;;5022248;28;20049;-81
2023/01/27 05:46:57;;;;;;;14.18;5.60;;;;;;;;;;5021990;28;20029;-81
2023/01/27 05:49:22;;;;;;;16.48;5.55;;;;;;;;;;5021198;28;20022;-81
2023/01/27 05:51:47;;;;;;;18.40;6.22;;;;;;;;;;5021337;28;20030;-82
2023/01/27 05:54:13;;;;;;;16.27;6.55;;;;;;;;;;5023235;28;20026;-83
2023/01/27 05:56:39;;;;;;;17.60;6.20;;;;;;;;;;5020977;28;20044;-82
2023/01/27 05:59:04;;;;;;;16.00;6.20;;;;;;;;;;5019076;28;20018;-80
2023/01/27 06:01:31;;;;;;;16.38;5.25;;;;;;;;;;5021648;28;20095;-81
2023/01/27 06:03:57;;;;;;;20.73;6.72;;;;;;;;;;5022216;28;20580;-82
2023/01/27 06:06:25;;;;;;;17.73;6.15;;;;;;;;;;5021630;28;20029;-82
2023/01/27 06:08:50;;;;;;;13.48;5.07;;;;;;;;;;5021540;28;20022;-83
2023/01/27 06:11:18;;;;;;;18.13;6.07;;;;;;;;;;5022278;28;20498;-82
2023/01/27 06:13:44;;;;;;;10.82;4.20;;;;;;;;;;5020634;28;20025;-82
2023/01/27 06:16:12;;;;;;;18.65;6.20;;;;;;;;;;5022638;28;20401;-81
2023/01/27 06:18:37;;;;;;;16.13;6.38;;;;;;;;;;5021011;28;20469;-82
2023/01/27 06:21:04;;;;;;;13.40;5.30;;;;;;;;;;5021316;28;20045;-80
2023/01/27 06:23:30;;;;;;;22.55;7.35;;;;;;;;;;5020051;28;20026;-82
2023/01/27 06:26:00;;;;;;;13.93;5.18;;;;;;;;;;5022613;28;20054;-82
2023/01/27 06:28:25;;;;;;;15.20;5.78;;;;;;;;;;5024109;28;20021;-84
2023/01/27 06:30:51;;;;;;;16.50;6.38;;;;;;;;;;5023892;28;20049;-82
2023/01/27 06:33:17;;;;;;;17.60;6.70;;;;;;;;;;5022578;28;20026;-82
2023/01/27 06:35:42;;;;;;;16.65;6.30;;;;;;;;;;5023767;28;20029;-83
2023/01/27 06:38:11;;;;;;;13.27;5.50;;;;;;;;;;5024440;28;20067;-83
2023/01/27 06:40:37;;;;;;;12.32;5.53;;;;;;;;;;5025224;28;20034;-82
2023/01/27 06:43:02;;;;;;;12.18;5.25;;;;;;;;;;5024737;28;20036;-82
2023/01/27 06:45:27;;;;;;;11.95;5.60;;;;;;;;;;5023960;28;20057;-83
2023/01/27 06:47:57;;;;;;;13.93;6.43;;;;;;;;;;5023896;28;20022;-83
2023/01/27 06:50:24;;;;;;;12.48;5.15;;;;;;;;;;5022776;28;20076;-82
2023/01/27 06:52:50;;;;;;;12.68;5.65;;;;;;;;;;5023432;28;20033;-83
2023/01/27 06:55:16;;;;;;;10.77;5.15;;;;;;;;;;5021408;28;20036;-83
2023/01/27 06:57:54;;;;;;;13.23;5.70;;;;;;;;;;5021609;28;20108;-82
2023/01/27 07:00:22;;;;;;;13.85;5.82;;;;;;;;;;5020263;28;20406;-82
2023/01/27 07:02:52;;;;;;;12.90;5.25;;;;;;;;;;5022166;28;20507;-82
2023/01/27 07:05:17;;;;;;;10.38;4.90;;;;;;;;;;5023789;28;20022;-83
2023/01/27 07:07:43;;;;;;;8.15;4.38;;;;;;;;;;5023188;28;20032;-84
2023/01/27 07:10:08;;;;;;;7.85;4.43;;;;;;;;;;5020939;28;20102;-83
2023/01/27 07:12:36;;;;;;;8.52;4.63;;;;;;;;;;5022140;28;20065;-82
2023/01/27 07:15:03;;;;;;;9.57;4.75;;;;;;;;;;5021270;28;20037;-80
2023/01/27 07:17:29;;;;;;;8.63;4.13;;;;;;;;;;5022412;28;20037;-82
2023/01/27 07:19:54;;;;;;;8.60;4.75;;;;;;;;;;5022386;28;20026;-81
2023/01/27 07:22:19;;;;;;;11.63;5.22;;;;;;;;;;5021284;28;20037;-81
2023/01/27 07:24:45;;;;;;;8.82;4.25;;;;;;;;;;5019587;28;20018;-83
2023/01/27 07:27:10;;;;;;;11.93;5.47;;;;;;;;;;5018141;28;20033;-81
2023/01/27 07:29:35;;;;;;;13.07;4.88;;;;;;;;;;5018306;28;20026;-83
2023/01/27 07:32:00;;;;;;;9.50;4.50;;;;;;;;;;5021791;28;20026;-82
2023/01/27 07:34:28;;;;;;;10.50;4.68;;;;;;;;;;5021378;28;20029;-82
2023/01/27 07:36:53;;;;;;;10.32;4.72;;;;;;;;;;5022151;28;20030;-83
2023/01/27 07:39:19;;;;;;;12.02;5.15;;;;;;;;;;5021253;28;20488;-83
2023/01/27 07:41:47;;;;;;;10.15;4.82;;;;;;;;;;5021841;28;20022;-83
2023/01/27 07:44:12;;;;;;;9.70;5.28;;;;;;;;;;5020232;28;20017;-82
2023/01/27 07:46:37;;;;;;;12.57;4.78;;;;;;;;;;5020588;28;20053;-84
2023/01/27 07:49:03;;;;;;;11.32;5.70;;;;;;;;;;5020520;28;20026;-84
2023/01/27 07:51:28;;;;;;;9.00;4.78;;;;;;;;;;5021446;28;20034;-84
2023/01/27 07:53:53;;;;;;;12.63;5.68;;;;;;;;;;5026106;28;20056;-83
2023/01/27 07:56:18;;;;;;;10.48;5.20;;;;;;;;;;5022511;28;20033;-82
2023/01/27 07:58:43;;;;;;;11.10;4.97;;;;;;;;;;5022416;28;20037;-82
2023/01/27 08:01:10;;;;;;;11.57;4.97;;;;;;;;;;5019541;28;20032;-82
2023/01/27 08:03:39;;;;;;;11.93;5.55;;;;;;;;;;5020608;28;20033;-82
2023/01/27 08:06:07;;;;;;;10.30;4.93;;;;;;;;;;5021841;28;20181;-82
2023/01/27 08:08:32;;;;;;;10.23;4.93;;;;;;;;;;5021929;28;20384;-82
2023/01/27 08:11:07;;;;;;;11.02;4.78;;;;;;;;;;5021338;28;20025;-83
2023/01/27 08:13:34;;;;;;;10.77;5.13;;;;;;;;;;5021061;28;20021;-82
2023/01/27 08:16:01;;;;;;;10.93;4.85;;;;;;;;;;5019500;28;20022;-82
2023/01/27 08:18:28;;;;;;;12.02;4.93;;;;;;;;;;5019532;28;20018;-82
2023/01/27 08:20:54;;;;;;;13.00;5.30;;;;;;;;;;5018588;28;20033;-81
2023/01/27 08:23:21;;;;;;;13.52;6.05;;;;;;;;;;5018743;28;20022;-82
2023/01/27 08:25:55;;;;;;;12.88;5.57;;;;;;;;;;5018051;28;20021;-82
2023/01/27 08:28:21;;;;;;;16.15;6.88;;;;;;;;;;5020847;28;20396;-81
2023/01/27 08:30:50;;;;;;;13.38;6.38;;;;;;;;;;5018361;28;20034;-82
2023/01/27 08:33:17;;;;;;;16.27;6.50;;;;;;;;;;5019391;28;20028;-82
2023/01/27 08:35:43;;;;;;;16.83;6.13;;;;;;;;;;5017680;28;20085;-83
2023/01/27 08:38:10;;;;;;;11.00;5.93;;;;;;;;;;5018815;28;20018;-82
2023/01/27 08:40:35;;;;;;;13.70;6.00;;;;;;;;;;5017628;28;20491;-81
2023/01/27 08:43:01;;;;;;;12.48;5.78;;;;;;;;;;5016185;28;20022;-83
2023/01/27 08:45:27;;;;;;;11.30;5.45;;;;;;;;;;5017200;28;20026;-82
2023/01/27 08:47:52;;;;;;;12.13;5.95;;;;;;;;;;5017446;28;20083;-83
2023/01/27 08:50:17;;;;;;;13.73;6.28;;;;;;;;;;5017843;28;20179;-83
2023/01/27 08:52:43;;;;;;;11.00;5.55;;;;;;;;;;5017731;28;20038;-82
2023/01/27 08:55:08;;;;;;;11.05;5.35;;;;;;;;;;5017728;28;20033;-82
2023/01/27 08:57:33;;;;;;;11.80;6.05;;;;;;;;;;5018792;28;20030;-80
2023/01/27 08:59:58;;;;;;;12.32;6.00;;;;;;;;;;5018878;28;20026;-83
2023/01/27 09:02:24;;;;;;;10.20;5.07;;;;;;;;;;5018218;28;20038;-82
2023/01/27 09:04:50;;;;;;;9.27;4.88;;;;;;;;;;5018004;28;20455;-82
2023/01/27 09:07:16;;;;;;;9.18;4.93;;;;;;;;;;5019093;28;20026;-83
2023/01/27 09:09:44;;;;;;;8.45;4.10;;;;;;;;;;5018240;28;20034;-83
2023/01/27 09:12:09;;;;;;;7.57;3.78;;;;;;;;;;5019089;28;20084;-83
2023/01/27 09:14:35;;;;;;;10.55;5.47;;;;;;;;;;5017936;28;20017;-82
2023/01/27 09:17:00;;;;;;;8.52;4.68;;;;;;;;;;5016792;28;20153;-82
2023/01/27 09:19:25;;;;;;;12.02;5.47;;;;;;;;;;5019414;28;20044;-82
2023/01/27 09:21:50;;;;;;;10.07;5.55;;;;;;;;;;5020086;28;20084;-83
2023/01/27 09:24:16;;;;;;;12.10;5.97;;;;;;;;;;5023224;28;20088;-82
2023/01/27 09:26:42;;;;;;;10.40;5.30;;;;;;;;;;5022643;28;20034;-80
2023/01/27 09:29:07;;;;;;;9.90;5.35;;;;;;;;;;5021329;28;20014;-82
2023/01/27 09:31:34;;;;;;;11.27;5.35;;;;;;;;;;5021199;28;20026;-81
2023/01/27 09:33:59;;;;;;;8.45;4.65;;;;;;;;;;5021867;28;20061;-81
2023/01/27 09:36:26;;;;;;;8.65;4.80;;;;;;;;;;5021298;28;20026;-81
2023/01/27 09:38:57;;;;;;;9.68;5.18;;;;;;;;;;5020557;28;20040;-82
2023/01/27 09:42:00;;;;;;;9.27;4.63;;;;;;;;;;5022095;28;20046;-82
2023/01/27 09:44:52;;;;;;;9.35;5.10;;;;;;;;;;5018856;28;20448;-81
2023/01/27 09:47:31;;;;;;;11.18;5.90;;;;;;;;;;5017821;28;20486;-82
2023/01/27 09:50:14;;;;;;;8.32;4.55;;;;;;;;;;5018743;28;20025;-81
2023/01/27 09:53:13;;;;;;;9.98;5.35;;;;;;;;;;5019778;28;20120;-82
2023/01/27 09:55:57;;;;;;;10.50;5.63;;;;;;;;;;5019373;28;20030;-82
2023/01/27 09:58:34;;;;;;;9.68;5.57;;;;;;;;;;5020224;28;20030;-82
2023/01/27 10:01:27;;;;;;;7.30;4.22;;;;;;;;;;5020501;28;20092;-82
2023/01/27 10:04:40;;;;;;;8.63;5.35;;;;;;;;;;5018137;28;20044;-82
2023/01/27 10:07:37;;;;;;;11.35;5.43;;;;;;;;;;5017962;28;20022;-81
2023/01/27 10:10:35;;;;;;;27.83;9.98;;;;;;;;;;5017874;28;20085;-81
2023/01/27 10:13:19;;;;;;;18.75;7.90;;;;;;;;;;5020309;28;20034;-82
2023/01/27 10:16:04;;;;;;;13.90;6.93;;;;;;;;;;5022191;28;20022;-83
2023/01/27 10:18:46;;;;;;;10.93;5.93;;;;;;;;;;5023630;28;20085;-81
2023/01/27 10:21:42;;;;;;;12.43;6.30;;;;;;;;;;5027925;28;20026;-84
2023/01/27 10:24:58;;;;;;;14.57;7.50;;;;;;;;;;5029682;28;20029;-83
2023/01/27 10:27:25;;;;;;;16.10;7.50;;;;;;;;;;4985877;28;20073;-81
2023/01/27 10:30:02;;;;;;;11.80;6.03;;;;;;;;;;5023685;28;20037;-82
2023/01/27 10:32:43;;;;;;;11.52;6.03;;;;;;;;;;5032834;28;20037;-81
2023/01/27 10:35:16;;;;;;;15.93;7.05;;;;;;;;;;5027195;28;20133;-80
2023/01/27 10:38:03;;;;;;;11.93;6.45;;;;;;;;;;5024668;28;20029;-82
2023/01/27 10:40:39;;;;;;;12.50;5.78;;;;;;;;;;5034789;28;20120;-81
2023/01/27 10:43:23;;;;;;;14.98;6.78;;;;;;;;;;5035698;28;20029;-83
2023/01/27 10:45:57;;;;;;;13.50;7.25;;;;;;;;;;5037607;28;20010;-84
2023/01/27 10:48:49;;;;;;;13.20;6.63;;;;;;;;;;5036621;28;20172;-81
2023/01/27 10:51:24;;;;;;;15.45;6.85;;;;;;;;;;5034981;28;20037;-82
2023/01/27 10:54:06;;;;;;;13.70;7.38;;;;;;;;;;5038217;28;20045;-82
2023/01/27 10:56:42;;;;;;;14.05;7.00;;;;;;;;;;5032651;28;20037;-82
2023/01/27 10:59:25;;;;;;;12.75;6.30;;;;;;;;;;5032081;28;20045;-81
2023/01/27 11:01:55;;;;;;;14.48;6.93;;;;;;;;;;5019409;28;20400;-82
2023/01/27 11:04:35;;;;;;;15.20;6.82;;;;;;;;;;5020842;28;20125;-82
2023/01/27 11:07:04;;;;;;;10.48;5.25;;;;;;;;;;5019105;28;20038;-82
2023/01/27 11:09:32;;;;;;;9.20;5.47;;;;;;;;;;5020928;28;20416;-82
2023/01/27 11:12:06;;;;;;;11.75;5.03;;;;;;;;;;5021623;28;20424;-84
2023/01/27 11:14:48;;;;;;;10.82;5.45;;;;;;;;;;5021355;28;20084;-82
2023/01/27 11:17:51;;;;;;;14.07;6.20;;;;;;;;;;5020899;28;20034;-82
2023/01/27 11:20:38;;;;;;;11.77;5.35;;;;;;;;;;5019371;28;20028;-82
2023/01/27 11:23:17;;;;;;;11.88;5.80;;;;;;;;;;5019320;28;20116;-83
2023/01/27 11:25:55;;;;;;;12.45;6.10;;;;;;;;;;5020795;28;20369;-82
2023/01/27 11:28:52;;;;;;;12.32;5.93;;;;;;;;;;5020132;28;20053;-82
2023/01/27 11:31:44;;;;;;;10.77;5.72;;;;;;;;;;5019842;28;20026;-83
2023/01/27 11:34:42;;;;;;;15.48;6.30;;;;;;;;;;5019989;28;20061;-80
2023/01/27 11:37:20;;;;;;;12.45;5.90;;;;;;;;;;5020055;28;20113;-82
2023/01/27 11:39:46;;;;;;;14.80;7.03;;;;;;;;;;5019819;28;20030;-82
2023/01/27 11:42:11;;;;;;;13.27;6.72;;;;;;;;;;5019227;28;20057;-82
2023/01/27 11:44:39;;;;;;;15.35;7.13;;;;;;;;;;5017075;28;20045;-82
2023/01/27 11:47:06;;;;;;;14.23;6.85;;;;;;;;;;5018958;28;20022;-81
2023/01/27 11:49:40;;;;;;;17.65;7.63;;;;;;;;;;5018766;28;20022;-82
2023/01/27 11:52:12;;;;;;;19.38;7.65;;;;;;;;;;5019167;28;20029;-82
2023/01/27 11:54:53;;;;;;;17.33;7.05;;;;;;;;;;5017933;28;20026;-81
2023/01/27 11:57:21;;;;;;;14.30;6.88;;;;;;;;;;5019583;28;20025;-81
2023/01/27 11:59:50;;;;;;;16.92;7.82;;;;;;;;;;5020962;28;20033;-81
2023/01/27 12:02:34;;;;;;;19.42;7.43;;;;;;;;;;5020426;28;20029;-81
2023/01/27 12:05:25;;;;;;;15.90;7.43;;;;;;;;;;5020616;28;20034;-81
2023/01/27 12:07:54;;;;;;;17.77;7.93;;;;;;;;;;5019703;28;20033;-81
2023/01/27 12:10:28;;;;;;;17.40;7.95;;;;;;;;;;5019809;28;20030;-81
2023/01/27 12:12:54;;;;;;;18.73;8.65;;;;;;;;;;5019779;28;20101;-82
2023/01/27 12:15:19;;;;;;;18.15;8.48;;;;;;;;;;5020248;28;20037;-81
2023/01/27 12:17:55;;;;;;;19.52;8.55;;;;;;;;;;5018919;28;20025;-82
2023/01/27 12:20:20;;;;;;;18.80;8.98;;;;;;;;;;5018433;28;20078;-82
2023/01/27 12:22:49;;;;;;;19.73;8.03;;;;;;;;;;5018608;28;20496;-83
2023/01/27 12:25:21;;;;;;;16.58;7.60;;;;;;;;;;5019468;28;20033;-81
2023/01/27 12:27:51;;;;;;;15.65;7.50;;;;;;;;;;5019711;28;20037;-81
2023/01/27 12:30:21;;;;;;;18.38;7.97;;;;;;;;;;5021050;28;20471;-80
2023/01/27 12:32:47;;;;;;;20.52;8.18;;;;;;;;;;5037010;28;20026;-82
2023/01/27 12:35:35;;;;;;;18.50;8.35;;;;;;;;;;5033111;28;20017;-82
2023/01/27 12:38:15;;;;;;;18.17;7.18;;;;;;;;;;5027170;28;20106;-81
2023/01/27 12:40:43;;;;;;;20.38;9.15;;;;;;;;;;5026865;28;20033;-81
2023/01/27 12:43:14;;;;;;;16.92;7.40;;;;;;;;;;5018068;28;20038;-82
2023/01/27 12:45:40;;;;;;;18.48;8.95;;;;;;;;;;5016040;28;20034;-82
2023/01/27 12:48:09;;;;;;;23.00;9.25;;;;;;;;;;5014146;28;20018;-82
2023/01/27 12:50:37;;;;;;;22.55;9.55;;;;;;;;;;5015446;28;20091;-82
2023/01/27 12:53:16;;;;;;;16.83;8.68;;;;;;;;;;5016019;28;20030;-81
2023/01/27 12:55:48;;;;;;;19.98;8.93;;;;;;;;;;5015763;28;20022;-82
2023/01/27 12:58:27;;;;;;;21.65;9.88;;;;;;;;;;5017610;28;20121;-81
2023/01/27 13:00:52;;;;;;;20.95;9.63;;;;;;;;;;5020329;28;20483;-82
2023/01/27 13:03:19;;;;;;;24.05;9.57;;;;;;;;;;5020643;28;20040;-83
2023/01/27 13:05:44;;;;;;;16.77;7.20;;;;;;;;;;5019083;28;20056;-82
2023/01/27 13:08:16;;;;;;;22.42;9.10;;;;;;;;;;5020236;28;20054;-83
2023/01/27 13:10:54;;;;;;;21.35;8.70;;;;;;;;;;5020714;28;20022;-83
2023/01/27 13:13:23;;;;;;;21.77;9.02;;;;;;;;;;5020741;28;20040;-82
2023/01/27 13:15:56;;;;;;;22.55;9.18;;;;;;;;;;5019112;28;20026;-82
2023/01/27 13:18:22;;;;;;;18.35;8.85;;;;;;;;;;5020953;28;20029;-82
2023/01/27 13:20:56;;;;;;;15.10;7.85;;;;;;;;;;5019891;28;20030;-82
2023/01/27 13:23:25;;;;;;;17.63;7.63;;;;;;;;;;5021065;28;20038;-82
2023/01/27 13:26:01;;;;;;;19.63;8.82;;;;;;;;;;5019422;28;20076;-82
2023/01/27 13:28:31;;;;;;;21.23;8.52;;;;;;;;;;5017788;28;20461;-82
2023/01/27 13:31:05;;;;;;;18.75;8.40;;;;;;;;;;5019031;28;20029;-81
2023/01/27 13:33:41;;;;;;;12.95;6.57;;;;;;;;;;5019632;28;20032;-83
2023/01/27 13:36:14;;;;;;;14.40;7.40;;;;;;;;;;5020088;28;20068;-82
2023/01/27 13:39:12;;;;;;;17.10;7.93;;;;;;;;;;5018161;28;20024;-82
2023/01/27 13:42:07;;;;;;;14.38;6.80;;;;;;;;;;4966227;28;20042;-82
2023/01/27 13:44:43;;;;;;;13.20;6.10;;;;;;;;;;5020223;28;20503;-81
2023/01/27 13:47:17;;;;;;;12.57;6.93;;;;;;;;;;5019672;28;20037;-80
2023/01/27 13:49:49;;;;;;;16.40;7.15;;;;;;;;;;5019318;28;20025;-79
2023/01/27 13:52:14;;;;;;;15.70;7.38;;;;;;;;;;5018179;28;20025;-82
2023/01/27 13:54:39;;;;;;;13.05;6.97;;;;;;;;;;5020639;28;20419;-82
2023/01/27 13:57:26;;;;;;;13.88;6.70;;;;;;;;;;5019866;28;20061;-81
2023/01/27 14:00:18;;;;;;;16.00;7.82;;;;;;;;;;5019379;28;20048;-81
2023/01/27 14:03:03;;;;;;;14.73;6.63;;;;;;;;;;5019343;28;20033;-81
2023/01/27 14:06:07;;;;;;;15.45;6.82;;;;;;;;;;5020205;28;20030;-84
2023/01/27 14:08:42;;;;;;;14.97;7.13;;;;;;;;;;5019197;28;20025;-80
2023/01/27 14:11:39;;;;;;;13.82;7.35;;;;;;;;;;5020010;28;20037;-80
2023/01/27 14:14:19;;;;;;;14.82;7.25;;;;;;;;;;5020650;28;20105;-82
2023/01/27 14:17:14;;;;;;;16.58;7.75;;;;;;;;;;5019845;28;20022;-81
2023/01/27 14:20:09;;;;;;;15.70;7.32;;;;;;;;;;5005118;28;20037;-80
2023/01/27 14:23:03;;;;;;;12.88;6.72;;;;;;;;;;5019350;28;20033;-82
2023/01/27 14:25:43;;;;;;;10.88;6.05;;;;;;;;;;5019447;28;20045;-81
2023/01/27 14:28:44;;;;;;;13.35;6.60;;;;;;;;;;5019951;28;20442;-82
2023/01/27 14:31:16;;;;;;;12.10;6.80;;;;;;;;;;5017910;28;20075;-81
2023/01/27 14:33:59;;;;;;;12.43;6.45;;;;;;;;;;5019676;28;20135;-82
2023/01/27 14:36:46;;;;;;;14.57;6.83;;;;;;;;;;5017121;28;20022;-81
2023/01/27 14:39:26;;;;;;;12.90;6.05;;;;;;;;;;5015666;28;20397;-80
2023/01/27 14:42:10;;;;;;;12.60;6.15;;;;;;;;;;5019488;28;20499;-81
2023/01/27 14:44:48;;;;;;;10.13;5.65;;;;;;;;;;5019437;28;20026;-81
2023/01/27 14:47:25;;;;;;;10.15;5.53;;;;;;;;;;5018914;28;20037;-82
2023/01/27 14:50:28;;;;;;;15.52;6.57;;;;;;;;;;5017014;28;20026;-82
2023/01/27 14:53:06;;;;;;;12.45;6.60;;;;;;;;;;5012093;28;20505;-81
2023/01/27 14:55:35;;;;;;;10.88;5.82;;;;;;;;;;5017324;28;20471;-82
2023/01/27 14:58:16;;;;;;;12.55;5.78;;;;;;;;;;5018851;28;20460;-82
2023/01/27 15:00:58;;;;;;;12.57;6.20;;;;;;;;;;5017061;28;20399;-82
2023/01/27 15:03:52;;;;;;;9.95;5.70;;;;;;;;;;5017718;28;20030;-81
2023/01/27 15:06:28;;;;;;;10.88;5.85;;;;;;;;;;5018019;28;20112;-81
2023/01/27 15:09:23;;;;;;;11.55;5.72;;;;;;;;;;5019237;28;20050;-81
2023/01/27 15:12:06;;;;;;;;;;;;;;;;;;5019318;28;20022;-82
2023/01/27 15:14:43;;;;;;;11.70;5.18;;;;;;;;;;5018030;28;19909;-81
2023/01/27 15:17:20;;;;;;;14.10;5.88;;;;;;;;;;5018290;28;20061;-80
2023/01/27 15:19:54;;;;;;;9.75;5.43;;;;;;;;;;5016398;28;20026;-83
2023/01/27 15:22:47;;;;;;;11.48;5.78;;;;;;;;;;5018517;28;20037;-82